Time,TemperatureF,DewpointF,PressureIn,WindDirection,WindDirectionDegrees,WindSpeedMPH,WindSpeedGustMPH,Humidity,HourlyPrecipIn,Conditions,Clouds,dailyrainin,SoftwareType,DateUTC
2013-03-09 04:34:00,13.9,12.5,30.38,NW,319,0.0,6.0,94,0.00,,,0.00,Wunderground v.1.15,2013-03-09 09:34:00,
2013-03-09 04:36:00,14.1,12.7,30.38,NW,319,0.0,6.0,94,0.00,,,0.00,Wunderground v.1.15,2013-03-09 09:36:00,
2013-03-09 04:37:00,14.1,12.7,30.38,NW,319,0.0,6.0,94,0.00,,,0.00,Wunderground v.1.15,2013-03-09 09:37:00,
2013-03-09 04:42:00,14.2,12.8,30.38,NW,319,0.0,6.0,94,0.00,,,0.00,Wunderground v.1.15,2013-03-09 09:42:00,
2013-03-09 04:48:00,13.9,12.3,30.38,NW,319,0.0,0.0,93,0.00,,,0.00,Wunderground v.1.15,2013-03-09 09:48:00,
2013-03-09 04:53:00,13.7,12.1,30.38,NW,319,0.0,0.0,93,0.00,,,0.00,Wunderground v.1.15,2013-03-09 09:53:00,
2013-03-09 04:58:00,13.9,12.5,30.38,NW,319,0.0,0.0,94,0.00,,,0.00,Wunderground v.1.15,2013-03-09 09:58:00,
2013-03-09 05:03:00,14.1,12.7,30.38,NW,319,0.0,3.0,94,0.00,,,0.00,Wunderground v.1.15,2013-03-09 10:03:00,
2013-03-09 05:08:00,13.8,12.2,30.38,NW,319,0.0,3.0,93,0.00,,,0.00,Wunderground v.1.15,2013-03-09 10:08:00,
2013-03-09 05:14:00,13.8,12.2,30.38,NW,319,0.0,3.0,93,0.00,,,0.00,Wunderground v.1.15,2013-03-09 10:14:00,
2013-03-09 05:19:00,13.9,12.5,30.38,NW,319,0.0,3.0,94,0.00,,,0.00,Wunderground v.1.15,2013-03-09 10:19:00,
2013-03-09 05:24:00,13.9,12.5,30.38,NW,319,0.0,3.0,94,0.00,,,0.00,Wunderground v.1.15,2013-03-09 10:24:00,
2013-03-09 05:29:00,14.0,12.6,30.38,NW,319,0.0,3.0,94,0.00,,,0.00,Wunderground v.1.15,2013-03-09 10:29:00,
2013-03-09 05:34:00,13.9,12.3,30.38,NW,319,0.0,3.0,93,0.00,,,0.00,Wunderground v.1.15,2013-03-09 10:34:00,
2013-03-09 05:40:00,13.7,12.1,30.38,NW,319,0.0,3.0,93,0.00,,,0.00,Wunderground v.1.15,2013-03-09 10:40:00,
2013-03-09 05:45:00,13.6,12.0,30.38,NW,319,0.0,3.0,93,0.00,,,0.00,Wunderground v.1.15,2013-03-09 10:45:00,
2013-03-09 05:50:00,13.4,11.8,30.38,NW,319,0.0,3.0,93,0.00,,,0.00,Wunderground v.1.15,2013-03-09 10:50:00,
2013-03-09 05:55:00,13.2,11.6,30.38,NW,319,0.0,3.0,93,0.00,,,0.00,Wunderground v.1.15,2013-03-09 10:55:00,
2013-03-09 06:00:00,13.1,11.5,30.38,NW,319,0.0,3.0,93,0.00,,,0.00,Wunderground v.1.15,2013-03-09 11:00:00,
2013-03-09 06:06:00,13.4,12.0,30.39,NW,319,0.0,3.0,94,0.00,,,0.00,Wunderground v.1.15,2013-03-09 11:06:00,
2013-03-09 06:11:00,12.8,11.2,30.39,NW,319,0.0,3.0,93,0.00,,,0.00,Wunderground v.1.15,2013-03-09 11:11:00,
2013-03-09 06:16:00,12.6,11.0,30.38,NW,319,0.0,3.0,93,0.00,,,0.00,Wunderground v.1.15,2013-03-09 11:16:00,
2013-03-09 06:21:00,12.8,11.4,30.39,NW,319,0.0,3.0,94,0.00,,,0.00,Wunderground v.1.15,2013-03-09 11:21:00,
2013-03-09 06:26:00,12.9,11.5,30.39,NW,319,0.0,3.0,94,0.00,,,0.00,Wunderground v.1.15,2013-03-09 11:26:00,
2013-03-09 06:32:00,12.8,11.2,30.39,NW,319,0.0,3.0,93,0.00,,,0.00,Wunderground v.1.15,2013-03-09 11:32:00,
2013-03-09 06:37:00,12.4,10.8,30.39,NW,319,0.0,3.0,93,0.00,,,0.00,Wunderground v.1.15,2013-03-09 11:37:00,
2013-03-09 06:42:00,12.3,10.7,30.40,NW,319,0.0,3.0,93,0.00,,,0.00,Wunderground v.1.15,2013-03-09 11:42:00,
2013-03-09 06:47:00,12.5,10.9,30.40,NW,319,0.0,3.0,93,0.00,,,0.00,Wunderground v.1.15,2013-03-09 11:47:00,
2013-03-09 06:52:00,12.7,11.1,30.40,NW,319,0.0,3.0,93,0.00,,,0.00,Wunderground v.1.15,2013-03-09 11:52:00,
2013-03-09 06:58:00,12.4,10.8,30.40,NW,319,0.0,3.0,93,0.00,,,0.00,Wunderground v.1.15,2013-03-09 11:58:00,
2013-03-09 07:03:00,12.4,10.8,30.40,NW,319,0.0,3.0,93,0.00,,,0.00,Wunderground v.1.15,2013-03-09 12:03:00,
2013-03-09 07:08:00,12.4,10.8,30.41,NW,319,0.0,3.0,93,0.00,,,0.00,Wunderground v.1.15,2013-03-09 12:08:00,
2013-03-09 07:13:00,12.3,10.7,30.41,NW,319,0.0,3.0,93,0.00,,,0.00,Wunderground v.1.15,2013-03-09 12:13:00,
2013-03-09 07:18:00,12.5,10.9,30.41,NW,319,0.0,3.0,93,0.00,,,0.00,Wunderground v.1.15,2013-03-09 12:18:00,
2013-03-09 07:24:00,12.9,11.5,30.41,NW,319,0.0,3.0,94,0.00,,,0.00,Wunderground v.1.15,2013-03-09 12:24:00,
2013-03-09 07:29:00,13.7,12.3,30.41,NW,319,0.0,3.0,94,0.00,,,0.00,Wunderground v.1.15,2013-03-09 12:29:00,
2013-03-09 07:34:00,14.4,13.2,30.41,NW,319,0.0,3.0,95,0.00,,,0.00,Wunderground v.1.15,2013-03-09 12:34:00,
2013-03-09 07:39:00,15.2,14.0,30.41,NW,319,0.0,3.0,95,0.00,,,0.00,Wunderground v.1.15,2013-03-09 12:39:00,
2013-03-09 07:44:00,15.4,14.0,30.42,NW,319,0.0,3.0,94,0.00,,,0.00,Wunderground v.1.15,2013-03-09 12:44:00,
2013-03-09 07:50:00,16.7,15.5,30.42,NW,319,0.0,3.0,95,0.00,,,0.00,Wunderground v.1.15,2013-03-09 12:50:00,
2013-03-09 07:55:00,17.5,16.3,30.42,NW,319,0.0,3.0,95,0.00,,,0.00,Wunderground v.1.15,2013-03-09 12:55:00,
2013-03-09 08:00:00,18.1,16.9,30.42,NW,319,0.0,3.0,95,0.00,,,0.00,Wunderground v.1.15,2013-03-09 13:00:00,
2013-03-09 08:05:00,18.9,17.7,30.42,NW,305,0.0,3.0,95,0.00,,,0.00,Wunderground v.1.15,2013-03-09 13:05:00,
2013-03-09 08:10:00,20.2,19.2,30.42,West,262,0.0,3.0,96,0.00,,,0.00,Wunderground v.1.15,2013-03-09 13:10:00,
2013-03-09 08:16:00,21.3,20.1,30.42,SSW,200,0.0,3.0,95,0.00,,,0.00,Wunderground v.1.15,2013-03-09 13:16:00,
2013-03-09 08:21:00,22.9,21.9,30.42,SSW,200,0.0,3.0,96,0.00,,,0.00,Wunderground v.1.15,2013-03-09 13:21:00,
2013-03-09 08:26:00,24.5,23.5,30.42,ESE,122,0.0,3.0,96,0.00,,,0.00,Wunderground v.1.15,2013-03-09 13:26:00,
2013-03-09 08:31:00,24.6,23.4,30.42,ESE,121,0.0,3.0,95,0.00,,,0.00,Wunderground v.1.15,2013-03-09 13:31:00,
2013-03-09 08:36:00,25.5,24.3,30.42,ESE,121,0.0,3.0,95,0.00,,,0.00,Wunderground v.1.15,2013-03-09 13:36:00,
2013-03-09 08:42:00,26.4,24.9,30.42,SW,218,0.0,3.0,94,0.00,,,0.00,Wunderground v.1.15,2013-03-09 13:42:00,
2013-03-09 08:47:00,27.0,25.2,30.41,SSW,204,0.0,3.0,93,0.00,,,0.00,Wunderground v.1.15,2013-03-09 13:47:00,
2013-03-09 08:52:00,27.7,25.9,30.41,SSW,212,0.0,3.0,93,0.00,,,0.00,Wunderground v.1.15,2013-03-09 13:52:00,
2013-03-09 08:57:00,27.5,25.0,30.41,SSW,208,1.0,3.0,90,0.00,,,0.00,Wunderground v.1.15,2013-03-09 13:57:00,
2013-03-09 09:02:00,28.2,25.6,30.41,SSW,210,1.0,3.0,90,0.00,,,0.00,Wunderground v.1.15,2013-03-09 14:02:00,
2013-03-09 09:07:00,28.1,25.3,30.42,WSW,240,0.0,3.0,89,0.00,,,0.00,Wunderground v.1.15,2013-03-09 14:07:00,
2013-03-09 09:12:00,28.5,25.7,30.42,SW,231,0.0,3.0,89,0.00,,,0.00,Wunderground v.1.15,2013-03-09 14:12:00,
2013-03-09 09:18:00,28.7,25.0,30.42,WSW,255,0.0,3.0,86,0.00,,,0.00,Wunderground v.1.15,2013-03-09 14:18:00,
2013-03-09 09:23:00,28.6,24.4,30.42,WNW,302,1.0,3.0,84,0.00,,,0.00,Wunderground v.1.15,2013-03-09 14:23:00,
2013-03-09 09:28:00,28.8,24.6,30.42,NW,326,1.0,3.0,84,0.00,,,0.00,Wunderground v.1.15,2013-03-09 14:28:00,
2013-03-09 09:33:00,29.5,24.7,30.42,WSW,239,0.0,3.0,82,0.00,,,0.00,Wunderground v.1.15,2013-03-09 14:33:00,
2013-03-09 09:38:00,30.3,24.6,30.42,WSW,243,0.0,3.0,79,0.00,,,0.00,Wunderground v.1.15,2013-03-09 14:38:00,
2013-03-09 09:43:00,31.3,25.2,30.42,SSE,162,1.0,3.0,78,0.00,,,0.00,Wunderground v.1.15,2013-03-09 14:43:00,
2013-03-09 09:48:00,32.4,24.7,30.42,ESE,107,1.0,3.0,73,0.00,,,0.00,Wunderground v.1.15,2013-03-09 14:48:00,
2013-03-09 09:53:00,32.8,24.8,30.42,WSW,240,1.0,3.0,72,0.00,,,0.00,Wunderground v.1.15,2013-03-09 14:53:00,
2013-03-09 09:58:00,33.3,25.2,30.42,SW,218,1.0,3.0,72,0.00,,,0.00,Wunderground v.1.15,2013-03-09 14:58:00,
2013-03-09 10:04:00,34.7,25.6,30.42,NW,322,1.0,3.0,69,0.00,,,0.00,Wunderground v.1.15,2013-03-09 15:04:00,
2013-03-09 10:09:00,35.0,24.8,30.42,West,266,1.0,3.0,66,0.00,,,0.01,Wunderground v.1.15,2013-03-09 15:09:00,
2013-03-09 10:14:00,35.7,25.8,30.42,North,358,1.0,3.0,67,0.00,,,0.01,Wunderground v.1.15,2013-03-09 15:14:00,
2013-03-09 10:19:00,36.2,25.2,30.42,North,352,1.0,3.0,64,0.00,,,0.01,Wunderground v.1.15,2013-03-09 15:19:00,
2013-03-09 10:24:00,36.0,25.0,30.41,SW,222,1.0,3.0,64,0.00,,,0.01,Wunderground v.1.15,2013-03-09 15:24:00,
2013-03-09 10:30:00,37.1,24.9,30.41,South,191,1.0,3.0,61,0.00,,,0.01,Wunderground v.1.15,2013-03-09 15:30:00,
2013-03-09 10:35:00,38.5,26.2,30.41,WNW,284,1.0,3.0,61,0.00,,,0.02,Wunderground v.1.15,2013-03-09 15:35:00,
2013-03-09 10:40:00,39.3,25.7,30.41,North,3,0.0,3.0,58,0.00,,,0.02,Wunderground v.1.15,2013-03-09 15:40:00,
2013-03-09 10:45:00,38.6,25.1,30.40,North,352,1.0,3.0,58,0.00,,,0.02,Wunderground v.1.15,2013-03-09 15:45:00,
2013-03-09 10:50:00,39.6,26.0,30.40,South,187,1.0,3.0,58,0.00,,,0.02,Wunderground v.1.15,2013-03-09 15:50:00,
2013-03-09 10:56:00,40.8,26.3,30.40,South,172,2.0,4.0,56,0.04,,,0.03,Wunderground v.1.15,2013-03-09 15:56:00,
2013-03-09 11:01:00,42.0,26.1,30.40,NW,305,1.0,3.0,53,0.04,,,0.03,Wunderground v.1.15,2013-03-09 16:01:00,
2013-03-09 11:06:00,42.2,26.3,30.40,WSW,245,1.0,3.0,53,0.06,,,0.04,Wunderground v.1.15,2013-03-09 16:06:00,
2013-03-09 11:11:00,42.2,25.3,30.40,North,351,1.0,3.0,51,0.06,,,0.04,Wunderground v.1.15,2013-03-09 16:11:00,
2013-03-09 11:16:00,41.5,25.2,30.40,SSW,210,1.0,3.0,52,0.05,,,0.05,Wunderground v.1.15,2013-03-09 16:16:00,
2013-03-09 11:22:00,41.8,25.4,30.40,North,1,1.0,3.0,52,0.05,,,0.05,Wunderground v.1.15,2013-03-09 16:22:00,
2013-03-09 11:27:00,42.9,26.0,30.40,WNW,283,1.0,3.0,51,0.06,,,0.06,Wunderground v.1.15,2013-03-09 16:27:00,
2013-03-09 11:32:00,43.1,25.7,30.40,East,95,1.0,3.0,50,0.08,,,0.07,Wunderground v.1.15,2013-03-09 16:32:00,
2013-03-09 11:37:00,44.0,25.5,30.40,North,8,1.0,3.0,48,0.08,,,0.07,Wunderground v.1.15,2013-03-09 16:37:00,
2013-03-09 11:42:00,44.0,25.0,30.40,East,79,1.0,3.0,47,0.07,,,0.08,Wunderground v.1.15,2013-03-09 16:42:00,
2013-03-09 11:48:00,44.8,26.3,30.40,West,266,1.0,3.0,48,0.08,,,0.09,Wunderground v.1.15,2013-03-09 16:48:00,
2013-03-09 11:53:00,44.6,25.6,30.40,SW,222,1.0,3.0,47,0.08,,,0.09,Wunderground v.1.15,2013-03-09 16:53:00,
2013-03-09 11:58:00,44.4,25.9,30.39,SSE,153,2.0,3.0,48,0.09,,,0.10,Wunderground v.1.15,2013-03-09 16:58:00,
2013-03-09 12:03:00,45.0,26.0,30.39,WSW,239,2.0,3.0,47,0.08,,,0.11,Wunderground v.1.15,2013-03-09 17:03:00,
2013-03-09 12:08:00,45.6,24.9,30.39,West,274,1.0,3.0,44,0.08,,,0.11,Wunderground v.1.15,2013-03-09 17:08:00,
2013-03-09 12:14:00,46.3,25.6,30.39,SW,219,1.0,3.0,44,0.08,,,0.12,Wunderground v.1.15,2013-03-09 17:14:00,
2013-03-09 12:19:00,46.5,24.6,30.38,WSW,252,1.0,5.0,42,0.08,,,0.13,Wunderground v.1.15,2013-03-09 17:19:00,
2013-03-09 12:24:00,46.8,24.9,30.38,NNW,336,2.0,3.0,42,0.08,,,0.13,Wunderground v.1.15,2013-03-09 17:24:00,
2013-03-09 12:29:00,46.2,24.3,30.38,West,271,2.0,4.0,42,0.09,,,0.14,Wunderground v.1.15,2013-03-09 17:29:00,
2013-03-09 12:34:00,46.5,25.2,30.37,WNW,301,2.0,3.0,43,0.09,,,0.15,Wunderground v.1.15,2013-03-09 17:34:00,
2013-03-09 12:40:00,46.8,24.9,30.37,NNW,328,1.0,1.0,42,0.13,,,0.16,Wunderground v.1.15,2013-03-09 17:40:00,
2013-03-09 12:45:00,48.0,25.4,30.36,ESE,115,1.0,3.0,41,0.12,,,0.17,Wunderground v.1.15,2013-03-09 17:45:00,
2013-03-09 12:50:00,48.2,26.2,30.36,ESE,108,1.0,1.0,42,0.12,,,0.18,Wunderground v.1.15,2013-03-09 17:50:00,
2013-03-09 12:55:00,49.2,26.5,30.36,NNE,20,1.0,4.0,41,0.12,,,0.19,Wunderground v.1.15,2013-03-09 17:55:00,
2013-03-09 13:00:00,49.5,26.1,30.35,SSE,158,1.0,3.0,40,0.13,,,0.20,Wunderground v.1.15,2013-03-09 18:00:00,
2013-03-09 13:06:00,49.3,25.4,30.35,North,11,1.0,3.0,39,0.11,,,0.21,Wunderground v.1.15,2013-03-09 18:06:00,
2013-03-09 13:11:00,49.6,25.6,30.35,SSW,205,1.0,2.0,39,0.10,,,0.22,Wunderground v.1.15,2013-03-09 18:11:00,
2013-03-09 13:16:00,49.8,25.2,30.35,South,191,1.0,3.0,38,0.10,,,0.23,Wunderground v.1.15,2013-03-09 18:16:00,
2013-03-09 13:21:00,50.2,26.8,30.35,SSE,150,1.0,3.0,40,0.10,,,0.24,Wunderground v.1.15,2013-03-09 18:21:00,
2013-03-09 13:26:00,50.2,23.6,30.34,South,172,1.0,3.0,35,0.09,,,0.25,Wunderground v.1.15,2013-03-09 18:26:00,
2013-03-09 13:32:00,50.5,24.5,30.34,WSW,257,1.0,3.0,36,0.09,,,0.25,Wunderground v.1.15,2013-03-09 18:32:00,
2013-03-09 13:37:00,50.3,24.3,30.34,SE,141,1.0,3.0,36,0.09,,,0.26,Wunderground v.1.15,2013-03-09 18:37:00,
2013-03-09 13:42:00,50.4,22.3,30.34,ESE,104,2.0,3.0,33,0.09,,,0.27,Wunderground v.1.15,2013-03-09 18:42:00,
2013-03-09 13:47:00,50.3,19.2,30.34,West,267,2.0,3.0,29,0.08,,,0.27,Wunderground v.1.15,2013-03-09 18:47:00,
2013-03-09 13:52:00,49.9,17.2,30.34,NW,311,1.0,3.0,27,0.07,,,0.28,Wunderground v.1.15,2013-03-09 18:52:00,
2013-03-09 13:57:00,49.8,17.1,30.34,NW,323,2.0,3.0,27,0.07,,,0.28,Wunderground v.1.15,2013-03-09 18:57:00,
2013-03-09 14:03:00,49.5,18.5,30.34,NW,322,2.0,3.0,29,0.05,,,0.29,Wunderground v.1.15,2013-03-09 19:03:00,
2013-03-09 14:08:00,49.4,17.6,30.35,NW,326,2.0,3.0,28,0.05,,,0.29,Wunderground v.1.15,2013-03-09 19:08:00,
2013-03-09 14:13:00,49.4,19.2,30.35,NNW,347,2.0,3.0,30,0.04,,,0.30,Wunderground v.1.15,2013-03-09 19:13:00,
2013-03-09 14:18:00,49.3,19.1,30.35,WNW,292,2.0,3.0,30,0.04,,,0.30,Wunderground v.1.15,2013-03-09 19:18:00,
2013-03-09 14:24:00,49.0,20.4,30.35,West,279,2.0,3.0,32,0.04,,,0.30,Wunderground v.1.15,2013-03-09 19:24:00,
2013-03-09 14:29:00,49.2,23.4,30.35,North,356,2.0,3.0,36,0.04,,,0.30,Wunderground v.1.15,2013-03-09 19:29:00,
2013-03-09 14:34:00,48.5,22.7,30.35,NW,304,3.0,6.0,36,0.00,,,0.31,Wunderground v.1.15,2013-03-09 19:34:00,
2013-03-09 14:39:00,48.5,23.4,30.35,WNW,287,3.0,6.0,37,0.00,,,0.31,Wunderground v.1.15,2013-03-09 19:39:00,
2013-03-09 14:44:00,48.4,23.3,30.35,NNW,328,3.0,5.0,37,0.00,,,0.31,Wunderground v.1.15,2013-03-09 19:44:00,
2013-03-09 14:50:00,48.3,22.5,30.35,NNW,330,3.0,3.0,36,0.00,,,0.31,Wunderground v.1.15,2013-03-09 19:50:00,
2013-03-09 14:55:00,48.5,23.4,30.35,NW,319,2.0,3.0,37,0.00,,,0.31,Wunderground v.1.15,2013-03-09 19:55:00,
2013-03-09 15:00:00,49.2,24.0,30.35,ENE,77,2.0,3.0,37,0.00,,,0.31,Wunderground v.1.15,2013-03-09 20:00:00,
2013-03-09 15:05:00,49.4,22.9,30.35,WNW,298,2.0,4.0,35,0.00,,,0.31,Wunderground v.1.15,2013-03-09 20:05:00,
2013-03-09 15:10:00,49.5,21.5,30.35,NNW,337,2.0,2.0,33,0.00,,,0.31,Wunderground v.1.15,2013-03-09 20:10:00,
2013-03-09 15:15:00,50.5,20.9,30.35,ENE,77,1.0,3.0,31,0.00,,,0.31,Wunderground v.1.15,2013-03-09 20:15:00,
2013-03-09 15:20:00,51.5,22.6,30.35,ENE,77,0.0,3.0,32,0.00,,,0.31,Wunderground v.1.15,2013-03-09 20:20:00,
2013-03-09 15:25:00,52.1,22.3,30.35,WNW,297,0.0,3.0,31,0.00,,,0.31,Wunderground v.1.15,2013-03-09 20:25:00,
2013-03-09 15:30:00,51.3,18.4,30.35,NNW,339,1.0,3.0,27,0.00,,,0.31,Wunderground v.1.15,2013-03-09 20:30:00,
2013-03-09 15:35:00,50.5,18.6,30.35,WNW,292,2.0,4.0,28,0.00,,,0.31,Wunderground v.1.15,2013-03-09 20:35:00,
2013-03-09 15:41:00,50.0,18.9,30.35,NNW,335,2.0,3.0,29,0.00,,,0.31,Wunderground v.1.15,2013-03-09 20:41:00,
2013-03-09 15:46:00,49.8,18.0,30.35,WNW,290,2.0,3.0,28,0.00,,,0.31,Wunderground v.1.15,2013-03-09 20:46:00,
2013-03-09 15:51:00,49.5,19.3,30.35,NNE,26,2.0,3.0,30,0.00,,,0.31,Wunderground v.1.15,2013-03-09 20:51:00,
2013-03-09 15:56:00,50.1,19.0,30.35,NW,319,1.0,3.0,29,0.00,,,0.31,Wunderground v.1.15,2013-03-09 20:56:00,
2013-03-09 16:02:00,49.6,18.6,30.35,NW,317,1.0,3.0,29,0.00,,,0.31,Wunderground v.1.15,2013-03-09 21:02:00,
2013-03-09 16:08:00,49.5,20.8,30.35,North,360,2.0,3.0,32,0.00,,,0.31,Wunderground v.1.15,2013-03-09 21:08:00,
2013-03-09 16:13:00,49.8,21.1,30.35,NNW,336,1.0,3.0,32,0.00,,,0.31,Wunderground v.1.15,2013-03-09 21:13:00,
2013-03-09 16:18:00,50.2,22.2,30.35,NNW,336,0.0,3.0,33,0.00,,,0.31,Wunderground v.1.15,2013-03-09 21:18:00,
2013-03-09 16:24:00,50.1,19.8,30.35,NNW,336,0.0,3.0,30,0.00,,,0.31,Wunderground v.1.15,2013-03-09 21:24:00,
2013-03-09 16:29:00,50.3,20.8,30.35,NNW,336,0.0,3.0,31,0.00,,,0.31,Wunderground v.1.15,2013-03-09 21:29:00,
2013-03-09 16:34:00,50.4,17.6,30.35,NNW,336,0.0,3.0,27,0.00,,,0.31,Wunderground v.1.15,2013-03-09 21:34:00,
2013-03-09 16:39:00,50.8,18.0,30.36,NNW,335,0.0,3.0,27,0.00,,,0.31,Wunderground v.1.15,2013-03-09 21:39:00,
2013-03-09 16:45:00,49.4,18.4,30.35,North,11,0.0,3.0,29,0.00,,,0.31,Wunderground v.1.15,2013-03-09 21:45:00,
2013-03-09 16:50:00,49.3,18.3,30.35,North,11,0.0,3.0,29,0.00,,,0.31,Wunderground v.1.15,2013-03-09 21:50:00,
2013-03-09 16:55:00,48.9,18.0,30.35,North,11,0.0,3.0,29,0.00,,,0.31,Wunderground v.1.15,2013-03-09 21:55:00,
2013-03-09 17:00:00,47.7,17.7,30.35,North,11,0.0,3.0,30,0.00,,,0.31,Wunderground v.1.15,2013-03-09 22:00:00,
2013-03-09 17:05:00,46.4,18.8,30.35,North,10,0.0,3.0,33,0.00,,,0.31,Wunderground v.1.15,2013-03-09 22:05:00,
2013-03-09 17:10:00,45.6,17.4,30.35,North,11,0.0,3.0,32,0.00,,,0.31,Wunderground v.1.15,2013-03-09 22:10:00,
2013-03-09 17:15:00,44.8,18.1,30.35,North,11,0.0,3.0,34,0.00,,,0.31,Wunderground v.1.15,2013-03-09 22:15:00,
2013-03-09 17:20:00,44.1,17.5,30.35,North,11,0.0,3.0,34,0.00,,,0.31,Wunderground v.1.15,2013-03-09 22:20:00,
2013-03-09 17:26:00,43.7,15.7,30.36,North,11,0.0,3.0,32,0.00,,,0.31,Wunderground v.1.15,2013-03-09 22:26:00,
2013-03-09 17:31:00,43.4,14.7,30.36,North,11,0.0,3.0,31,0.00,,,0.31,Wunderground v.1.15,2013-03-09 22:31:00,
2013-03-09 17:36:00,43.0,14.4,30.36,North,11,0.0,3.0,31,0.00,,,0.31,Wunderground v.1.15,2013-03-09 22:36:00,
2013-03-09 17:41:00,42.5,14.7,30.36,North,11,0.0,3.0,32,0.00,,,0.31,Wunderground v.1.15,2013-03-09 22:41:00,
2013-03-09 17:46:00,41.9,15.5,30.36,North,11,0.0,3.0,34,0.00,,,0.31,Wunderground v.1.15,2013-03-09 22:46:00,
2013-03-09 17:52:00,41.2,16.2,30.36,North,11,0.0,3.0,36,0.00,,,0.31,Wunderground v.1.15,2013-03-09 22:52:00,
2013-03-09 17:57:00,40.8,17.7,30.36,North,11,0.0,3.0,39,0.00,,,0.31,Wunderground v.1.15,2013-03-09 22:57:00,
2013-03-09 18:02:00,40.3,19.5,30.36,North,10,0.0,3.0,43,0.00,,,0.31,Wunderground v.1.15,2013-03-09 23:02:00,
2013-03-09 18:07:00,39.9,19.7,30.36,North,10,0.0,3.0,44,0.00,,,0.31,Wunderground v.1.15,2013-03-09 23:07:00,
2013-03-09 18:12:00,39.2,18.5,30.37,North,10,0.0,3.0,43,0.00,,,0.31,Wunderground v.1.15,2013-03-09 23:12:00,
2013-03-09 18:18:00,38.5,20.0,30.36,North,11,0.0,3.0,47,0.00,,,0.31,Wunderground v.1.15,2013-03-09 23:18:00,
2013-03-09 18:23:00,37.8,19.8,30.36,North,11,0.0,3.0,48,0.00,,,0.31,Wunderground v.1.15,2013-03-09 23:23:00,
2013-03-09 18:28:00,37.3,20.8,30.36,North,10,0.0,3.0,51,0.00,,,0.31,Wunderground v.1.15,2013-03-09 23:28:00,
2013-03-09 18:33:00,36.7,21.6,30.36,North,10,0.0,3.0,54,0.00,,,0.31,Wunderground v.1.15,2013-03-09 23:33:00,
2013-03-09 18:38:00,36.1,22.3,30.36,North,11,1.0,3.0,57,0.00,,,0.31,Wunderground v.1.15,2013-03-09 23:38:00,
2013-03-09 18:44:00,35.5,22.6,30.36,North,11,1.0,3.0,59,0.00,,,0.31,Wunderground v.1.15,2013-03-09 23:44:00,
2013-03-09 18:49:00,35.0,22.5,30.36,North,11,1.0,3.0,60,0.00,,,0.31,Wunderground v.1.15,2013-03-09 23:49:00,
2013-03-09 18:54:00,34.7,23.0,30.36,North,11,1.0,3.0,62,0.00,,,0.31,Wunderground v.1.15,2013-03-09 23:54:00,
2013-03-09 18:59:00,34.3,23.0,30.36,North,11,1.0,3.0,63,0.00,,,0.31,Wunderground v.1.15,2013-03-09 23:59:00,
2013-03-09 19:04:00,34.2,22.1,30.36,North,11,1.0,3.0,61,0.00,,,0.31,Wunderground v.1.15,2013-03-10 00:04:00,
2013-03-09 19:10:00,33.9,21.9,30.36,North,11,1.0,3.0,61,0.00,,,0.31,Wunderground v.1.15,2013-03-10 00:10:00,
2013-03-09 19:15:00,33.8,21.4,30.36,North,11,1.0,3.0,60,0.00,,,0.31,Wunderground v.1.15,2013-03-10 00:15:00,
2013-03-09 19:20:00,33.6,21.6,30.36,North,11,1.0,3.0,61,0.00,,,0.31,Wunderground v.1.15,2013-03-10 00:20:00,
2013-03-09 19:25:00,33.3,22.1,30.36,NNE,12,1.0,3.0,63,0.00,,,0.31,Wunderground v.1.15,2013-03-10 00:25:00,
2013-03-09 19:30:00,33.1,21.9,30.36,NNE,12,1.0,1.0,63,0.00,,,0.31,Wunderground v.1.15,2013-03-10 00:30:00,
2013-03-09 19:36:00,33.2,20.0,30.36,NNE,12,1.0,3.0,58,0.00,,,0.31,Wunderground v.1.15,2013-03-10 00:36:00,
2013-03-09 19:41:00,33.3,21.3,30.36,NNE,13,0.0,3.0,61,0.00,,,0.31,Wunderground v.1.15,2013-03-10 00:41:00,
2013-03-09 19:46:00,32.4,22.3,30.37,NNE,13,0.0,3.0,66,0.00,,,0.31,Wunderground v.1.15,2013-03-10 00:46:00,
2013-03-09 19:51:00,31.9,22.5,30.37,NNE,12,0.0,3.0,68,0.00,,,0.31,Wunderground v.1.15,2013-03-10 00:51:00,
2013-03-09 19:56:00,31.5,21.8,30.37,NNE,12,0.0,3.0,67,0.00,,,0.31,Wunderground v.1.15,2013-03-10 00:56:00,
2013-03-09 20:02:00,31.6,18.1,30.37,NNE,12,0.0,3.0,57,0.00,,,0.31,Wunderground v.1.15,2013-03-10 01:02:00,
2013-03-09 20:07:00,32.2,20.6,30.37,NE,53,0.0,3.0,62,0.00,,,0.31,Wunderground v.1.15,2013-03-10 01:07:00,
2013-03-09 20:12:00,31.8,21.0,30.38,NE,53,1.0,3.0,64,0.00,,,0.31,Wunderground v.1.15,2013-03-10 01:12:00,
2013-03-09 20:17:00,31.1,21.4,30.38,NE,53,1.0,3.0,67,0.00,,,0.31,Wunderground v.1.15,2013-03-10 01:17:00,
2013-03-09 20:22:00,30.8,20.4,30.37,NE,53,1.0,3.0,65,0.00,,,0.31,Wunderground v.1.15,2013-03-10 01:22:00,
2013-03-09 20:28:00,30.6,21.3,30.38,NW,319,1.0,3.0,68,0.00,,,0.31,Wunderground v.1.15,2013-03-10 01:28:00,
2013-03-09 20:33:00,30.3,21.7,30.37,NNW,340,0.0,3.0,70,0.00,,,0.31,Wunderground v.1.15,2013-03-10 01:33:00,
2013-03-09 20:38:00,30.3,21.7,30.37,NNW,340,0.0,3.0,70,0.00,,,0.31,Wunderground v.1.15,2013-03-10 01:38:00,
2013-03-09 20:43:00,30.1,21.8,30.37,NNW,340,0.0,0.0,71,0.00,,,0.31,Wunderground v.1.15,2013-03-10 01:43:00,
2013-03-09 20:48:00,29.5,21.6,30.37,NNW,332,0.0,1.0,72,0.00,,,0.31,Wunderground v.1.15,2013-03-10 01:48:00,
2013-03-09 20:54:00,28.8,21.9,30.38,NNW,332,0.0,0.0,75,0.00,,,0.31,Wunderground v.1.15,2013-03-10 01:54:00,
2013-03-09 20:59:00,28.3,21.4,30.38,NNW,332,0.0,0.0,75,0.00,,,0.31,Wunderground v.1.15,2013-03-10 01:59:00,
2013-03-09 21:04:00,28.8,20.2,30.38,NNW,332,0.0,2.0,70,0.00,,,0.31,Wunderground v.1.15,2013-03-10 02:04:00,
2013-03-09 21:09:00,29.8,19.8,30.38,NNW,332,0.0,2.0,66,0.00,,,0.31,Wunderground v.1.15,2013-03-10 02:09:00,
2013-03-09 21:14:00,30.1,20.5,30.38,NNW,332,1.0,2.0,67,0.00,,,0.31,Wunderground v.1.15,2013-03-10 02:14:00,
2013-03-09 21:19:00,29.3,21.1,30.39,NNW,332,0.0,2.0,71,0.00,,,0.31,Wunderground v.1.15,2013-03-10 02:19:00,
2013-03-09 21:24:00,29.0,20.4,30.39,NNW,332,0.0,2.0,70,0.00,,,0.31,Wunderground v.1.15,2013-03-10 02:24:00,
2013-03-09 21:29:00,29.0,20.4,30.39,NNW,331,0.0,2.0,70,0.00,,,0.31,Wunderground v.1.15,2013-03-10 02:29:00,
2013-03-09 21:34:00,28.7,20.1,30.38,NNW,332,0.0,2.0,70,0.00,,,0.31,Wunderground v.1.15,2013-03-10 02:34:00,
2013-03-09 21:39:00,28.8,20.6,30.38,NNW,332,0.0,2.0,71,0.00,,,0.31,Wunderground v.1.15,2013-03-10 02:39:00,
2013-03-09 21:44:00,28.7,21.1,30.38,NNW,332,0.0,2.0,73,0.00,,,0.31,Wunderground v.1.15,2013-03-10 02:44:00,
2013-03-09 21:49:00,28.3,21.1,30.37,NNW,332,0.0,2.0,74,0.00,,,0.31,Wunderground v.1.15,2013-03-10 02:49:00,
2013-03-09 21:55:00,28.0,20.8,30.38,NNW,332,0.0,2.0,74,0.00,,,0.31,Wunderground v.1.15,2013-03-10 02:55:00,
2013-03-09 22:00:00,28.2,20.3,30.38,NNW,332,1.0,1.0,72,0.00,,,0.31,Wunderground v.1.15,2013-03-10 03:00:00,
2013-03-09 22:05:00,28.0,19.8,30.38,NNW,332,0.0,2.0,71,0.00,,,0.31,Wunderground v.1.15,2013-03-10 03:05:00,
2013-03-09 22:10:00,27.9,20.0,30.37,NNW,332,0.0,2.0,72,0.00,,,0.31,Wunderground v.1.15,2013-03-10 03:10:00,
2013-03-09 22:15:00,27.4,20.8,30.38,NNW,332,1.0,2.0,76,0.00,,,0.31,Wunderground v.1.15,2013-03-10 03:15:00,
2013-03-09 22:21:00,26.9,21.0,30.37,NNW,332,0.0,2.0,78,0.00,,,0.31,Wunderground v.1.15,2013-03-10 03:21:00,
2013-03-09 22:26:00,27.1,20.8,30.37,NNW,331,0.0,2.0,77,0.00,,,0.31,Wunderground v.1.15,2013-03-10 03:26:00,
2013-03-09 22:31:00,27.0,20.7,30.37,NNW,332,0.0,2.0,77,0.00,,,0.31,Wunderground v.1.15,2013-03-10 03:31:00,
2013-03-09 22:36:00,26.9,20.7,30.37,NNW,332,0.0,2.0,77,0.00,,,0.31,Wunderground v.1.15,2013-03-10 03:36:00,
2013-03-09 22:41:00,26.6,20.7,30.37,NNW,332,0.0,2.0,78,0.00,,,0.31,Wunderground v.1.15,2013-03-10 03:41:00,
2013-03-09 22:47:00,26.1,20.2,30.37,NNW,332,1.0,2.0,78,0.00,,,0.31,Wunderground v.1.15,2013-03-10 03:47:00,
2013-03-09 22:52:00,25.7,20.1,30.37,NNW,332,0.0,2.0,79,0.00,,,0.31,Wunderground v.1.15,2013-03-10 03:52:00,
2013-03-09 22:57:00,25.4,19.8,30.37,NNW,332,0.0,2.0,79,0.00,,,0.31,Wunderground v.1.15,2013-03-10 03:57:00,
2013-03-09 23:02:00,25.6,19.7,30.37,NNW,332,0.0,2.0,78,0.00,,,0.31,Wunderground v.1.15,2013-03-10 04:02:00,
2013-03-09 23:07:00,26.1,19.6,30.37,WSW,252,0.0,2.0,76,0.00,,,0.31,Wunderground v.1.15,2013-03-10 04:07:00,
2013-03-09 23:13:00,25.5,19.9,30.37,WSW,250,0.0,2.0,79,0.00,,,0.31,Wunderground v.1.15,2013-03-10 04:13:00,
2013-03-09 23:18:00,25.2,19.9,30.37,WSW,252,0.0,2.0,80,0.00,,,0.31,Wunderground v.1.15,2013-03-10 04:18:00,
2013-03-09 23:23:00,25.1,20.1,30.37,WSW,252,0.0,2.0,81,0.00,,,0.31,Wunderground v.1.15,2013-03-10 04:23:00,
2013-03-09 23:28:00,24.9,19.9,30.37,WSW,252,0.0,2.0,81,0.00,,,0.31,Wunderground v.1.15,2013-03-10 04:28:00,
2013-03-09 23:33:00,25.0,20.0,30.37,WSW,252,0.0,2.0,81,0.00,,,0.31,Wunderground v.1.15,2013-03-10 04:33:00,
2013-03-09 23:39:00,24.9,19.9,30.37,WSW,252,0.0,2.0,81,0.00,,,0.31,Wunderground v.1.15,2013-03-10 04:39:00,
2013-03-09 23:44:00,24.5,19.2,30.37,WSW,252,0.0,2.0,80,0.00,,,0.31,Wunderground v.1.15,2013-03-10 04:44:00,
2013-03-09 23:49:00,24.4,19.1,30.37,WSW,252,0.0,2.0,80,0.00,,,0.31,Wunderground v.1.15,2013-03-10 04:49:00,
2013-03-09 23:54:00,24.4,18.8,30.37,WSW,252,0.0,2.0,79,0.00,,,0.31,Wunderground v.1.15,2013-03-10 04:54:00,
2013-03-09 23:59:00,24.7,19.1,30.37,WSW,252,0.0,2.0,79,0.00,,,0.31,Wunderground v.1.15,2013-03-10 04:59:00,